createdAt,value
2023-02-16T00:01:46.184Z,5.30
2023-02-16T00:04:16.153Z,5.30
2023-02-16T00:06:42.982Z,5.30
2023-02-16T00:09:09.694Z,5.30
2023-02-16T00:11:55.139Z,5.30
2023-02-16T00:14:23.479Z,5.20
2023-02-16T00:16:50.544Z,5.30
2023-02-16T00:19:22.402Z,5.30
2023-02-16T00:21:50.823Z,5.30
2023-02-16T00:24:18.761Z,5.30
2023-02-16T00:26:45.909Z,5.20
2023-02-16T00:29:19.365Z,5.20
2023-02-16T00:31:46.419Z,5.20
2023-02-16T00:34:30.534Z,5.20
2023-02-16T00:36:58.241Z,5.20
2023-02-16T00:39:25.461Z,5.20
2023-02-16T00:41:58.153Z,5.20
2023-02-16T00:44:31.324Z,5.20
2023-02-16T00:47:21.808Z,5.20
2023-02-16T00:49:49.735Z,5.20
2023-02-16T00:52:20.281Z,5.20
2023-02-16T00:54:47.236Z,5.10
2023-02-16T00:57:16.291Z,5.10
2023-02-16T00:59:43.095Z,5.10
2023-02-16T01:02:10.180Z,5.10
2023-02-16T01:04:37.245Z,5.10
2023-02-16T01:07:27.864Z,5.10
2023-02-16T01:10:13.384Z,5.10
2023-02-16T01:12:40.248Z,5.10
2023-02-16T01:15:10.029Z,5.10
2023-02-16T01:17:36.943Z,5.10
2023-02-16T01:20:03.866Z,5.00
2023-02-16T01:22:33.920Z,5.00
2023-02-16T01:25:00.744Z,5.00
2023-02-16T01:27:27.495Z,5.00
2023-02-16T01:29:54.380Z,5.00
2023-02-16T01:32:21.313Z,5.00
2023-02-16T01:34:48.157Z,5.00
2023-02-16T01:37:16.091Z,5.00
2023-02-16T01:39:43.875Z,5.00
2023-02-16T01:42:11.827Z,5.00
2023-02-16T01:44:45.954Z,4.90
2023-02-16T01:47:19.209Z,5.00
2023-02-16T01:49:46.068Z,5.00
2023-02-16T01:52:25.489Z,4.90
2023-02-16T01:54:54.166Z,5.00
2023-02-16T01:57:33.846Z,4.90
2023-02-16T02:00:12.361Z,4.90
2023-02-16T02:02:50.248Z,4.90
2023-02-16T02:05:35.227Z,4.90
2023-02-16T02:08:02.010Z,5.00
2023-02-16T02:10:34.894Z,5.00
2023-02-16T02:13:11.165Z,4.90
2023-02-16T02:15:38.978Z,4.90
2023-02-16T02:18:06.168Z,4.90
2023-02-16T02:20:57.854Z,4.90
2023-02-16T02:23:35.707Z,4.90
2023-02-16T02:26:05.648Z,4.90
2023-02-16T02:28:32.458Z,4.90
2023-02-16T02:31:11.999Z,4.90
2023-02-16T02:33:52.631Z,4.90
2023-02-16T02:36:28.779Z,4.90
2023-02-16T02:39:06.973Z,4.80
2023-02-16T02:42:05.832Z,4.80
2023-02-16T02:44:46.582Z,4.80
2023-02-16T02:47:13.631Z,4.80
2023-02-16T02:49:48.764Z,4.90
2023-02-16T02:52:15.640Z,4.80
2023-02-16T02:55:01.037Z,4.80
2023-02-16T02:57:49.789Z,4.80
2023-02-16T03:00:43.797Z,4.80
2023-02-16T03:03:17.751Z,4.80
2023-02-16T03:05:46.340Z,4.70
2023-02-16T03:08:14.943Z,4.70
2023-02-16T03:11:06.006Z,4.70
2023-02-16T03:13:37.062Z,4.70
2023-02-16T03:16:06.739Z,4.70
2023-02-16T03:18:54.305Z,4.70
2023-02-16T03:21:39.955Z,4.60
2023-02-16T03:24:27.296Z,4.60
2023-02-16T03:27:12.598Z,4.60
2023-02-16T03:29:39.594Z,4.60
2023-02-16T03:32:06.633Z,4.60
2023-02-16T03:34:34.315Z,4.60
2023-02-16T03:37:01.179Z,4.60
2023-02-16T03:39:28.882Z,4.60
2023-02-16T03:41:56.560Z,4.50
2023-02-16T03:44:24.771Z,4.50
2023-02-16T03:46:51.529Z,4.50
2023-02-16T03:49:18.607Z,4.50
2023-02-16T03:51:45.480Z,4.50
2023-02-16T03:54:12.707Z,4.60
2023-02-16T03:56:39.507Z,4.50
2023-02-16T03:59:06.259Z,4.50
2023-02-16T04:01:33.266Z,4.50
2023-02-16T04:04:00.170Z,4.40
2023-02-16T04:06:27.001Z,4.50
2023-02-16T04:08:54.547Z,4.40
2023-02-16T04:11:40.073Z,4.40
2023-02-16T04:14:06.941Z,4.40
2023-02-16T04:16:33.741Z,4.40
2023-02-16T04:19:00.828Z,4.40
2023-02-16T04:21:27.631Z,4.40
2023-02-16T04:23:54.397Z,4.40
2023-02-16T04:26:21.170Z,4.40
2023-02-16T04:28:47.892Z,4.40
2023-02-16T04:31:14.906Z,4.40
2023-02-16T04:33:41.901Z,4.40
2023-02-16T04:36:08.849Z,4.50
2023-02-16T04:38:35.740Z,4.40
2023-02-16T04:41:02.975Z,4.40
2023-02-16T04:43:29.986Z,4.30
2023-02-16T04:45:56.757Z,4.30
2023-02-16T04:48:23.659Z,4.30
2023-02-16T04:50:50.569Z,4.30
2023-02-16T04:53:17.384Z,4.30
2023-02-16T04:55:50.205Z,4.40
2023-02-16T04:58:17.205Z,4.30
2023-02-16T05:00:44.013Z,4.30
2023-02-16T05:03:11.117Z,4.30
2023-02-16T05:05:37.908Z,4.20
2023-02-16T05:08:05.171Z,4.30
2023-02-16T05:10:31.950Z,4.30
2023-02-16T05:13:17.311Z,4.30
2023-02-16T05:15:45.123Z,4.30
2023-02-16T05:18:12.097Z,4.20
2023-02-16T05:20:57.611Z,4.30
2023-02-16T05:23:24.322Z,4.20
2023-02-16T05:25:51.157Z,4.20
2023-02-16T05:28:17.917Z,4.20
2023-02-16T05:30:45.045Z,4.20
2023-02-16T05:33:11.790Z,4.20
2023-02-16T05:35:38.512Z,4.30
2023-02-16T05:38:05.327Z,4.20
2023-02-16T05:40:32.124Z,4.20
2023-02-16T05:42:58.841Z,4.20
2023-02-16T05:45:25.643Z,4.20
2023-02-16T05:47:53.180Z,4.20
2023-02-16T05:50:20.133Z,4.20
2023-02-16T05:52:46.946Z,4.20
2023-02-16T05:55:13.733Z,4.20
2023-02-16T05:57:40.487Z,4.20
2023-02-16T06:00:08.682Z,4.20
2023-02-16T06:02:35.579Z,4.20
2023-02-16T06:05:02.449Z,4.10
2023-02-16T06:07:29.635Z,4.20
2023-02-16T06:10:00.798Z,4.10
2023-02-16T06:12:27.775Z,4.20
2023-02-16T06:14:57.182Z,4.10
2023-02-16T06:17:29.697Z,4.20
2023-02-16T06:19:56.659Z,4.10
2023-02-16T06:22:27.063Z,4.10
2023-02-16T06:25:02.526Z,4.10
2023-02-16T06:27:29.315Z,4.10
2023-02-16T06:29:56.107Z,4.20
2023-02-16T06:32:23.088Z,4.10
2023-02-16T06:34:50.289Z,4.10
2023-02-16T06:37:17.158Z,4.10
2023-02-16T06:39:44.042Z,4.10
2023-02-16T06:42:10.934Z,4.20
2023-02-16T06:44:39.499Z,4.10
2023-02-16T06:47:06.431Z,4.20
2023-02-16T06:49:33.452Z,4.20
2023-02-16T06:52:00.585Z,4.20
2023-02-16T06:54:27.426Z,4.20
2023-02-16T06:56:54.316Z,4.20
2023-02-16T06:59:22.308Z,4.20
2023-02-16T07:01:49.801Z,4.20
2023-02-16T07:04:19.862Z,4.20
2023-02-16T07:06:46.756Z,4.20
2023-02-16T07:09:13.680Z,4.20
2023-02-16T07:11:40.557Z,4.20
2023-02-16T07:14:07.679Z,4.20
2023-02-16T07:16:35.609Z,4.30
2023-02-16T07:19:02.814Z,4.30
2023-02-16T07:21:30.527Z,4.30
2023-02-16T07:23:57.480Z,4.30
2023-02-16T07:26:25.598Z,4.30
2023-02-16T07:28:52.745Z,4.40
2023-02-16T07:31:20.196Z,4.40
2023-02-16T07:33:47.793Z,4.40
2023-02-16T07:36:15.255Z,4.50
2023-02-16T07:38:42.125Z,4.50
2023-02-16T07:41:10.346Z,4.50
2023-02-16T07:43:38.181Z,4.50
2023-02-16T07:46:05.529Z,4.60
2023-02-16T07:48:35.027Z,4.60
2023-02-16T07:51:11.414Z,4.60
2023-02-16T07:53:38.375Z,4.60
2023-02-16T07:56:05.326Z,4.60
2023-02-16T07:58:33.245Z,4.60
2023-02-16T08:01:15.912Z,4.70
2023-02-16T08:03:43.076Z,4.70
2023-02-16T08:06:09.845Z,4.70
2023-02-16T08:08:37.317Z,4.80
2023-02-16T08:11:13.154Z,4.80
2023-02-16T08:13:39.964Z,4.80
2023-02-16T08:16:10.929Z,4.90
2023-02-16T08:18:38.191Z,4.90
2023-02-16T08:21:24.860Z,4.90
2023-02-16T08:23:56.419Z,4.90
2023-02-16T08:26:25.055Z,5.00
2023-02-16T08:28:52.731Z,5.00
2023-02-16T08:31:20.725Z,5.00
2023-02-16T08:33:48.105Z,5.10
2023-02-16T08:36:23.523Z,5.10
2023-02-16T08:38:52.330Z,5.10
2023-02-16T08:41:20.159Z,5.20
2023-02-16T08:43:48.295Z,5.20
2023-02-16T08:46:15.813Z,5.30
2023-02-16T08:48:43.921Z,5.30
2023-02-16T08:51:15.572Z,5.30
2023-02-16T08:53:42.412Z,5.40
2023-02-16T08:56:10.988Z,5.40
2023-02-16T08:58:37.874Z,5.40
2023-02-16T09:01:05.956Z,5.50
2023-02-16T09:03:32.781Z,5.50
2023-02-16T09:06:00.900Z,5.50
2023-02-16T09:08:28.566Z,5.50
2023-02-16T09:10:55.709Z,5.60
2023-02-16T09:13:22.457Z,5.60
2023-02-16T09:15:49.214Z,5.60
2023-02-16T09:18:16.555Z,5.70
2023-02-16T09:20:46.399Z,5.70
2023-02-16T09:23:13.859Z,5.80
2023-02-16T09:25:41.756Z,5.80
2023-02-16T09:28:11.590Z,5.90
2023-02-16T09:30:39.164Z,6.00
2023-02-16T09:33:06.506Z,6.00
2023-02-16T09:35:33.324Z,6.10
2023-02-16T09:38:00.132Z,6.10
2023-02-16T09:40:27.050Z,6.20
2023-02-16T09:42:53.845Z,6.20
2023-02-16T09:45:21.842Z,6.30
2023-02-16T09:47:50.488Z,6.30
2023-02-16T09:50:38.261Z,6.30
2023-02-16T09:53:20.109Z,6.40
2023-02-16T09:55:54.529Z,6.50
2023-02-16T09:58:22.830Z,6.60
2023-02-16T10:00:52.166Z,6.70
2023-02-16T10:03:24.687Z,6.70
2023-02-16T10:05:55.010Z,6.70
2023-02-16T10:08:25.278Z,6.70
2023-02-16T10:10:55.088Z,6.70
2023-02-16T10:13:27.330Z,6.80
2023-02-16T10:15:55.223Z,6.80
2023-02-16T10:18:29.980Z,6.80
2023-02-16T10:20:58.665Z,6.80
2023-02-16T10:23:38.847Z,6.80
2023-02-16T10:26:25.892Z,6.80
2023-02-16T10:28:57.101Z,6.90
2023-02-16T10:31:40.158Z,6.90
2023-02-16T10:34:23.292Z,6.90
2023-02-16T10:36:53.328Z,6.90
2023-02-16T10:39:32.601Z,7.00
2023-02-16T10:42:16.431Z,7.00
2023-02-16T10:44:48.953Z,7.00
2023-02-16T10:47:27.967Z,7.10
2023-02-16T10:49:54.965Z,7.10
2023-02-16T10:52:22.149Z,7.20
2023-02-16T10:54:49.481Z,7.20
2023-02-16T10:57:26.980Z,7.20
2023-02-16T10:59:54.728Z,7.20
2023-02-16T11:02:24.596Z,7.20
2023-02-16T11:04:52.535Z,7.30
2023-02-16T11:07:20.919Z,7.30
2023-02-16T11:09:51.331Z,7.40
2023-02-16T11:12:27.297Z,7.40
2023-02-16T11:14:55.722Z,7.40
2023-02-16T11:17:23.745Z,7.40
2023-02-16T11:19:52.731Z,7.40
2023-02-16T11:22:28.932Z,7.50
2023-02-16T11:24:55.841Z,7.50
2023-02-16T11:27:23.539Z,7.50
2023-02-16T11:29:50.853Z,7.60
2023-02-16T11:32:19.698Z,7.60
2023-02-16T11:34:47.668Z,7.60
2023-02-16T11:37:18.540Z,7.60
2023-02-16T11:39:50.489Z,7.60
2023-02-16T11:42:30.490Z,7.60
2023-02-16T11:44:58.823Z,7.70
2023-02-16T11:47:28.251Z,7.70
2023-02-16T11:50:13.897Z,7.70
2023-02-16T11:52:40.702Z,7.70
2023-02-16T11:55:18.840Z,7.70
2023-02-16T11:57:45.564Z,7.70
2023-02-16T12:00:19.832Z,7.70
2023-02-16T12:03:06.247Z,7.70
2023-02-16T12:05:47.554Z,7.70
2023-02-16T12:08:23.591Z,7.70
2023-02-16T12:11:10.950Z,7.80
2023-02-16T12:14:04.592Z,7.80
2023-02-16T12:16:47.480Z,7.80
2023-02-16T12:19:34.541Z,7.80
2023-02-16T12:22:04.394Z,7.80
2023-02-16T12:24:44.398Z,7.90
2023-02-16T12:27:24.681Z,7.90
2023-02-16T12:29:56.183Z,7.90
2023-02-16T12:32:41.328Z,7.90
2023-02-16T12:35:27.239Z,7.90
2023-02-16T12:37:54.026Z,7.80
2023-02-16T12:40:20.769Z,7.80
2023-02-16T12:43:06.935Z,7.90
2023-02-16T12:45:37.757Z,7.80
2023-02-16T12:48:10.892Z,7.90
2023-02-16T12:50:41.000Z,7.90
2023-02-16T12:53:28.072Z,7.90
2023-02-16T12:56:03.543Z,7.90
2023-02-16T12:59:02.404Z,7.90
2023-02-16T13:01:31.127Z,8.00
2023-02-16T13:04:03.525Z,8.00
2023-02-16T13:06:41.119Z,8.10
2023-02-16T13:09:29.359Z,8.10
2023-02-16T13:12:04.832Z,8.10
2023-02-16T13:14:32.857Z,8.10
2023-02-16T13:16:59.742Z,8.10
2023-02-16T13:19:26.964Z,8.10
2023-02-16T13:21:53.769Z,8.20
2023-02-16T13:24:26.810Z,8.10
2023-02-16T13:27:06.242Z,8.20
2023-02-16T13:29:52.670Z,8.20
2023-02-16T13:32:25.628Z,8.20
2023-02-16T13:34:52.373Z,8.20
2023-02-16T13:37:28.597Z,8.20
2023-02-16T13:40:04.753Z,8.20
2023-02-16T13:42:43.720Z,8.20
2023-02-16T13:45:19.762Z,8.20
2023-02-16T13:47:46.742Z,8.20
2023-02-16T13:50:23.742Z,8.20
2023-02-16T13:52:55.254Z,8.20
2023-02-16T13:55:22.036Z,8.20
2023-02-16T13:57:53.122Z,8.30
2023-02-16T14:00:34.981Z,8.20
2023-02-16T14:03:02.064Z,8.30
2023-02-16T14:05:31.062Z,8.30
2023-02-16T14:08:16.951Z,8.30
2023-02-16T14:10:56.139Z,8.30
2023-02-16T14:13:23.008Z,8.30
2023-02-16T14:15:53.838Z,8.30
2023-02-16T14:18:27.121Z,8.30
2023-02-16T14:21:01.592Z,8.30
2023-02-16T14:23:34.406Z,8.30
2023-02-16T14:26:03.200Z,8.40
2023-02-16T14:28:33.991Z,8.40
2023-02-16T14:31:12.355Z,8.40
2023-02-16T14:33:57.966Z,8.40
2023-02-16T14:36:26.988Z,8.40
2023-02-16T14:38:58.257Z,8.30
2023-02-16T14:41:35.413Z,8.40
2023-02-16T14:44:05.608Z,8.40
2023-02-16T14:46:51.361Z,8.40
2023-02-16T14:49:29.092Z,8.40
2023-02-16T14:52:08.322Z,8.40
2023-02-16T14:54:37.277Z,8.40
2023-02-16T14:57:13.258Z,8.40
2023-02-16T14:59:51.027Z,8.50
2023-02-16T15:02:38.267Z,8.50
2023-02-16T15:05:20.123Z,8.50
2023-02-16T15:07:50.392Z,8.50
2023-02-16T15:10:26.883Z,8.50
2023-02-16T15:12:54.949Z,8.50
2023-02-16T15:15:39.429Z,8.50
2023-02-16T15:18:12.808Z,8.60
2023-02-16T15:20:39.717Z,8.60
2023-02-16T15:23:16.485Z,8.50
2023-02-16T15:26:10.672Z,8.60
2023-02-16T15:29:15.719Z,8.50
2023-02-16T15:31:47.381Z,8.50
2023-02-16T15:34:26.450Z,8.50
2023-02-16T15:36:54.733Z,8.50
2023-02-16T15:39:38.514Z,8.50
2023-02-16T15:42:16.139Z,8.50
2023-02-16T15:44:44.306Z,8.50
2023-02-16T15:47:14.584Z,8.50
2023-02-16T15:49:41.635Z,8.50
2023-02-16T15:52:12.093Z,8.40
2023-02-16T15:54:40.525Z,8.40
2023-02-16T15:57:19.364Z,8.30
2023-02-16T15:59:47.601Z,8.40
2023-02-16T16:02:17.459Z,8.30
2023-02-16T16:04:46.218Z,8.30
2023-02-16T16:07:14.782Z,8.30
2023-02-16T16:09:42.712Z,8.30
2023-02-16T16:12:12.017Z,8.30
2023-02-16T16:14:40.420Z,8.20
2023-02-16T16:17:12.224Z,8.20
2023-02-16T16:19:39.018Z,8.20
2023-02-16T16:22:25.838Z,8.20
2023-02-16T16:24:52.557Z,8.20
2023-02-16T16:27:28.344Z,8.20
2023-02-16T16:30:09.806Z,8.20
2023-02-16T16:32:37.692Z,8.20
2023-02-16T16:35:19.489Z,8.20
2023-02-16T16:37:49.210Z,8.20
2023-02-16T16:40:19.798Z,8.20
2023-02-16T16:43:04.893Z,8.30
2023-02-16T16:45:35.132Z,8.30
2023-02-16T16:48:07.506Z,8.30
2023-02-16T16:50:37.669Z,8.20
2023-02-16T16:53:24.536Z,8.20
2023-02-16T16:55:51.316Z,8.20
2023-02-16T16:58:18.051Z,8.20
2023-02-16T17:00:44.882Z,8.20
2023-02-16T17:03:13.621Z,8.20
2023-02-16T17:05:41.467Z,8.20
2023-02-16T17:08:08.631Z,8.20
2023-02-16T17:10:36.643Z,8.30
2023-02-16T17:13:04.184Z,8.30
2023-02-16T17:15:40.413Z,8.30
2023-02-16T17:18:07.384Z,8.30
2023-02-16T17:20:34.220Z,8.20
2023-02-16T17:23:04.769Z,8.20
2023-02-16T17:25:33.032Z,8.20
2023-02-16T17:27:59.890Z,8.20
2023-02-16T17:30:26.996Z,8.20
2023-02-16T17:32:53.898Z,8.20
2023-02-16T17:35:21.290Z,8.20
2023-02-16T17:38:13.888Z,8.20
2023-02-16T17:40:41.376Z,8.20
2023-02-16T17:43:12.601Z,8.20
2023-02-16T17:45:39.483Z,8.20
2023-02-16T17:48:06.218Z,8.20
2023-02-16T17:50:33.304Z,8.20
2023-02-16T17:53:00.194Z,8.20
2023-02-16T17:55:27.171Z,8.20
2023-02-16T17:57:55.728Z,8.20
2023-02-16T18:00:22.780Z,8.20
2023-02-16T18:02:49.532Z,8.10
2023-02-16T18:05:16.417Z,8.10
2023-02-16T18:07:43.188Z,8.10
2023-02-16T18:10:15.242Z,8.10
2023-02-16T18:12:41.990Z,8.10
2023-02-16T18:15:08.818Z,8.10
2023-02-16T18:17:35.553Z,8.10
2023-02-16T18:20:04.240Z,8.10
2023-02-16T18:22:31.055Z,8.00
2023-02-16T18:24:59.323Z,8.00
2023-02-16T18:27:29.538Z,8.10
2023-02-16T18:29:56.509Z,8.10
2023-02-16T18:32:23.324Z,8.10
2023-02-16T18:34:52.495Z,8.10
2023-02-16T18:37:19.283Z,8.10
2023-02-16T18:39:46.083Z,8.10
2023-02-16T18:42:13.442Z,8.10
2023-02-16T18:44:40.198Z,8.10
2023-02-16T18:47:33.149Z,8.10
2023-02-16T18:50:00.413Z,8.10
2023-02-16T18:52:27.249Z,8.20
2023-02-16T18:55:01.677Z,8.10
2023-02-16T18:57:28.488Z,8.10
2023-02-16T18:59:55.299Z,8.10
2023-02-16T19:02:22.369Z,8.10
2023-02-16T19:04:49.096Z,8.10
2023-02-16T19:07:15.972Z,8.20
2023-02-16T19:09:42.792Z,8.20
2023-02-16T19:12:09.499Z,8.10
2023-02-16T19:14:36.512Z,8.20
2023-02-16T19:17:03.744Z,8.20
2023-02-16T19:19:31.085Z,8.20
2023-02-16T19:21:58.909Z,8.10
2023-02-16T19:24:25.763Z,8.20
2023-02-16T19:26:55.664Z,8.20
2023-02-16T19:29:36.809Z,8.20
2023-02-16T19:32:03.759Z,8.20
2023-02-16T19:34:30.727Z,8.20
2023-02-16T19:40:23.608Z,8.20
2023-02-16T19:42:50.444Z,8.20
2023-02-16T19:45:17.240Z,8.20
2023-02-16T19:47:44.034Z,8.10
2023-02-16T19:50:11.314Z,8.20
2023-02-16T19:52:38.266Z,8.20
2023-02-16T19:55:05.045Z,8.20
2023-02-16T19:57:31.859Z,8.20
2023-02-16T20:00:08.126Z,8.20
2023-02-16T20:02:38.701Z,8.10
2023-02-16T20:05:08.826Z,8.20
2023-02-16T20:07:36.046Z,8.20
2023-02-16T20:10:02.749Z,8.20
2023-02-16T20:12:29.580Z,8.10
2023-02-16T20:14:56.696Z,8.20
2023-02-16T20:17:23.678Z,8.10
2023-02-16T20:19:50.481Z,8.20
2023-02-16T20:22:17.288Z,8.20
2023-02-16T20:24:46.090Z,8.20
2023-02-16T20:27:13.013Z,8.20
2023-02-16T20:29:42.635Z,8.20
2023-02-16T20:32:10.599Z,8.20
2023-02-16T20:34:37.481Z,8.20
2023-02-16T20:37:04.380Z,8.10
2023-02-16T20:39:31.233Z,8.10
2023-02-16T20:41:58.433Z,8.10
2023-02-16T20:44:25.930Z,8.10
2023-02-16T20:46:52.879Z,8.20
2023-02-16T20:49:19.693Z,8.20
2023-02-16T20:51:46.493Z,8.20
2023-02-16T20:54:13.253Z,8.10
2023-02-16T20:56:40.045Z,8.20
2023-02-16T20:59:06.796Z,8.10
2023-02-16T21:01:33.652Z,8.10
2023-02-16T21:04:01.348Z,8.10
2023-02-16T21:06:30.953Z,8.10
2023-02-16T21:08:58.037Z,8.10
2023-02-16T21:11:25.568Z,8.10
2023-02-16T21:13:52.362Z,8.10
2023-02-16T21:16:19.251Z,8.10
2023-02-16T21:18:46.159Z,8.10
2023-02-16T21:21:15.608Z,8.10
2023-02-16T21:23:48.020Z,8.10
2023-02-16T21:26:15.198Z,8.10
2023-02-16T21:28:41.974Z,8.20
2023-02-16T21:31:10.131Z,8.20
2023-02-16T21:33:37.591Z,8.20
2023-02-16T21:36:04.847Z,8.20
2023-02-16T21:38:32.437Z,8.20
2023-02-16T21:41:26.555Z,8.20
2023-02-16T21:43:56.032Z,8.20
2023-02-16T21:46:23.110Z,8.20
2023-02-16T21:48:53.019Z,8.20
2023-02-16T21:51:21.304Z,8.20
2023-02-16T21:53:48.410Z,8.20
2023-02-16T21:56:30.486Z,8.20
2023-02-16T21:58:57.632Z,8.20
2023-02-16T22:01:29.111Z,8.20
2023-02-16T22:03:58.536Z,8.10
2023-02-16T22:06:27.050Z,8.20
2023-02-16T22:08:53.877Z,8.20
2023-02-16T22:11:24.698Z,8.20
2023-02-16T22:13:58.352Z,8.20
2023-02-16T22:16:26.215Z,8.20
2023-02-16T22:19:00.307Z,8.20
2023-02-16T22:21:29.567Z,8.30
2023-02-16T22:23:57.152Z,8.20
2023-02-16T22:26:25.125Z,8.30
2023-02-16T22:28:53.013Z,8.30
2023-02-16T22:31:25.032Z,8.30
2023-02-16T22:34:15.124Z,8.30
2023-02-16T22:36:42.124Z,8.30
2023-02-16T22:39:11.900Z,8.40
2023-02-16T22:41:38.701Z,8.40
2023-02-16T22:44:05.846Z,8.40
2023-02-16T22:46:32.947Z,8.40
2023-02-16T22:51:46.971Z,8.40
2023-02-16T22:54:15.739Z,8.40
2023-02-16T22:56:48.494Z,8.40
2023-02-16T22:59:15.640Z,8.50
2023-02-16T23:01:43.330Z,8.50
2023-02-16T23:04:15.313Z,8.40
2023-02-16T23:06:44.952Z,8.40
2023-02-16T23:09:16.526Z,8.40
2023-02-16T23:11:43.452Z,8.40
2023-02-16T23:14:16.355Z,8.40
2023-02-16T23:16:44.600Z,8.40
2023-02-16T23:19:13.004Z,8.40
2023-02-16T23:21:48.685Z,8.50
2023-02-16T23:24:21.732Z,8.50
2023-02-16T23:26:49.357Z,8.50
2023-02-16T23:29:16.477Z,8.50
2023-02-16T23:31:44.379Z,8.50
2023-02-16T23:34:11.788Z,8.60
2023-02-16T23:36:38.517Z,8.50
2023-02-16T23:41:39.826Z,8.50
2023-02-16T23:44:06.942Z,8.50
2023-02-16T23:46:34.837Z,8.50
2023-02-16T23:49:06.646Z,8.50
2023-02-16T23:51:35.009Z,8.60
2023-02-16T23:54:29.617Z,8.60
2023-02-16T23:56:59.881Z,8.70
2023-02-16T23:59:26.803Z,8.60
